Terminal Aerodrome Forecast
Issued by NWS

Home | Current Version | Previous Version | Text Only | Print | Product List | Glossary On
Versions: 1 2 3 4 5 6 7 8 9 10 11 12 13 14 15
000
FTUS45 KABQ 061727
TAFLVS
TAF
KLVS 061727Z 0618/0718 05010KT P6SM OVC060
     FM062000 04012KT P6SM VCTS BKN050CB BKN120
      TEMPO 0620/0624 VRB18G28KT
     FM070000 06011KT P6SM VCTS BKN050CB BKN090
     FM070600 03010KT 5SM -SHRA BR OVC015
     FM071100 06007KT 4SM BR OVC012
     FM071700 17007KT P6SM BKN030=

USA.gov is the U.S. government's official web portal to all federal, state and local government web resources and services.